Time;durP1;ratioP1;P1;durP2;ratioP2;P2;SDS_P1;SDS_P2;PMS_P1;PMS_P2;Temp;Humidity;BMP_temperature;BMP_pressure;BME280_temperature;BME280_humidity;BME280_pressure;Samples;Min_cycle;Max_cycle;Signal;HPM_P1;HPM_P2
2023/08/24 00:00:12;;;;;;;5.63;1.40;;;;;;;16.40;100.00;101719.69;5034695;28;20204;-76
2023/08/24 00:02:37;;;;;;;4.93;1.87;;;;;;;15.24;100.00;101514.13;5034966;28;20230;-76
2023/08/24 00:05:03;;;;;;;3.57;1.30;;;;;;;16.43;100.00;101705.72;5030959;28;20442;-76
2023/08/24 00:07:29;;;;;;;;;;;;;;;16.35;100.00;101697.81;5031610;28;20242;-76
2023/08/24 00:09:54;;;;;;;4.93;1.30;;;;;;;16.12;100.00;101671.28;5036283;28;19943;-76
2023/08/24 00:12:19;;;;;;;4.97;1.70;;;;;;;15.47;100.00;101587.44;5033172;28;20635;-76
2023/08/24 00:14:45;;;;;;;3.07;1.20;;;;;;;15.48;100.00;101583.69;5032354;28;20181;-76
2023/08/24 00:17:10;;;;;;;5.30;1.67;;;;;;;14.71;100.00;101447.56;5031734;28;21041;-76
2023/08/24 00:19:36;;;;;;;;;;;;;;;15.93;100.00;101656.78;5032744;28;20192;-76
2023/08/24 00:22:01;;;;;;;4.65;1.50;;;;;;;15.91;100.00;101629.13;5035542;28;20644;-75
2023/08/24 00:24:27;;;;;;;3.90;1.93;;;;;;;15.12;100.00;101479.66;5032232;28;20184;-76
2023/08/24 00:26:52;;;;;;;5.23;1.90;;;;;;;16.17;100.00;101603.81;5032879;28;20413;-76
2023/08/24 00:29:18;;;;;;;4.30;1.43;;;;;;;16.26;100.00;101612.50;5035125;28;20570;-74
2023/08/24 00:31:43;;;;;;;4.70;1.80;;;;;;;16.03;100.00;101603.06;5032162;28;20208;-76
2023/08/24 00:34:09;;;;;;;4.25;1.20;;;;;;;15.28;100.00;101496.44;5032673;28;20176;-76
2023/08/24 00:36:34;;;;;;;3.85;1.20;;;;;;;14.96;100.00;101438.78;5031325;28;20674;-76
2023/08/24 00:39:00;;;;;;;;;;;;;;;16.20;100.00;101646.69;5032989;28;20435;-76
2023/08/24 00:41:25;;;;;;;;;;;;;;;16.25;100.00;101651.44;5030658;28;19916;-76
2023/08/24 00:43:51;;;;;;;;;;;;;;;16.25;100.00;101652.25;5030601;28;21152;-76
2023/08/24 00:46:16;;;;;;;;;;;;;;;16.17;100.00;101651.69;5031645;28;19912;-77
2023/08/24 00:48:42;;;;;;;3.77;1.47;;;;;;;15.86;100.00;101641.63;5031208;28;20388;-76
2023/08/24 00:51:08;;;;;;;5.90;1.63;;;;;;;16.02;100.00;101679.00;5039085;28;20219;-77
2023/08/24 00:53:34;;;;;;;3.50;1.30;;;;;;;15.93;100.00;101632.44;5031172;28;20439;-77
2023/08/24 00:56:00;;;;;;;4.50;1.47;;;;;;;16.04;100.00;101652.59;5032562;28;20185;-76
2023/08/24 00:58:27;;;;;;;3.77;1.43;;;;;;;16.13;100.00;101650.47;5032295;28;20457;-77
2023/08/24 01:00:55;;;;;;;6.30;1.40;;;;;;;16.10;100.00;101650.91;5032744;28;20451;-76
2023/08/24 01:03:24;;;;;;;4.00;1.50;;;;;;;15.90;100.00;101629.34;5033193;28;20453;-76
2023/08/24 01:05:49;;;;;;;4.30;1.37;;;;;;;16.04;100.00;101615.53;5032532;28;20399;-76
2023/08/24 01:08:16;;;;;;;3.27;1.33;;;;;;;14.77;100.00;101462.91;5033082;28;20889;-76
2023/08/24 01:10:59;;;;;;;3.33;1.70;;;;;;;15.90;100.00;101643.69;5029556;28;20203;-76
2023/08/24 01:13:37;;;;;;;3.47;1.30;;;;;;;15.99;100.00;101641.56;5033682;28;20514;-77
2023/08/24 01:16:09;;;;;;;4.30;1.60;;;;;;;15.91;100.00;101628.28;5031138;28;20454;-76
2023/08/24 01:18:36;;;;;;;2.70;1.40;;;;;;;15.90;100.00;101632.03;5029150;28;20469;-76
2023/08/24 01:21:02;;;;;;;4.37;1.43;;;;;;;15.82;100.00;101633.97;5030970;28;20518;-76
2023/08/24 01:24:00;;;;;;;3.87;1.23;;;;;;;15.75;100.00;101613.38;5031051;28;20867;-77
2023/08/24 01:26:26;;;;;;;3.47;1.13;;;;;;;16.03;100.00;101668.00;5025864;28;20470;-77
2023/08/24 01:28:52;;;;;;;3.80;1.30;;;;;;;16.07;100.00;101613.44;5030771;28;21047;-77
2023/08/24 01:31:18;;;;;;;3.00;1.30;;;;;;;15.56;100.00;101542.91;5029730;28;20517;-77
2023/08/24 01:33:45;;;;;;;4.80;1.60;;;;;;;15.50;100.00;101543.75;5028791;28;20259;-77
2023/08/24 01:36:13;;;;;;;2.63;1.23;;;;;;;15.44;100.00;101550.00;5031320;28;20438;-77
2023/08/24 01:38:39;;;;;;;2.43;0.80;;;;;;;16.25;100.00;101662.25;5030286;28;20462;-76
2023/08/24 01:41:10;;;;;;;7.37;1.10;;;;;;;16.07;100.00;101657.56;5032108;28;20551;-77
2023/08/24 01:43:38;;;;;;;3.13;1.70;;;;;;;16.13;100.00;101678.34;5031994;28;20211;-77
2023/08/24 01:46:05;;;;;;;4.23;1.30;;;;;;;15.10;100.00;101481.75;5029943;28;20449;-76
2023/08/24 01:48:32;;;;;;;3.80;1.30;;;;;;;14.78;100.00;101448.41;5029889;28;20466;-76
2023/08/24 01:50:58;;;;;;;3.20;1.37;;;;;;;16.02;100.00;101650.06;5038794;28;20471;-77
2023/08/24 01:53:25;;;;;;;4.10;1.10;;;;;;;15.22;100.00;101454.06;5030347;28;20513;-77
2023/08/24 01:55:50;;;;;;;3.37;1.40;;;;;;;15.71;100.00;101574.28;5045410;28;20820;-77
2023/08/24 01:58:16;;;;;;;4.00;1.30;;;;;;;16.19;100.00;101627.94;5033082;28;20439;-77
2023/08/24 02:00:41;;;;;;;3.30;1.50;;;;;;;15.32;100.00;101492.25;5030436;28;20179;-76
2023/08/24 02:03:07;;;;;;;3.95;1.40;;;;;;;16.01;100.00;101597.00;5030601;28;20696;-77
2023/08/24 02:05:32;;;;;;;3.27;1.40;;;;;;;15.82;100.00;101557.34;5033660;28;20176;-77
2023/08/24 02:07:59;;;;;;;3.27;1.30;;;;;;;15.30;100.00;101456.50;5030480;28;20212;-76
2023/08/24 02:10:25;;;;;;;3.67;1.40;;;;;;;15.51;100.00;101517.56;5028701;28;20262;-77
2023/08/24 02:12:51;;;;;;;2.50;1.20;;;;;;;16.19;100.00;101600.88;5030457;28;20426;-77
2023/08/24 02:15:17;;;;;;;2.53;1.23;;;;;;;16.33;100.00;101615.16;5029308;28;20439;-77
2023/08/24 02:17:42;;;;;;;4.13;1.23;;;;;;;15.67;100.00;101491.88;5030336;28;20184;-76
2023/08/24 02:20:14;;;;;;;3.57;1.50;;;;;;;14.61;100.00;101352.66;5028770;28;20291;-77
2023/08/24 02:22:39;;;;;;;3.20;1.40;;;;;;;15.08;100.00;101410.88;5028568;28;20640;-77
2023/08/24 02:25:06;;;;;;;3.40;1.37;;;;;;;16.30;100.00;101619.13;5031023;28;20442;-77
2023/08/24 02:27:34;;;;;;;3.50;1.10;;;;;;;15.43;100.00;101507.00;5029249;28;20183;-77
2023/08/24 02:30:00;;;;;;;4.00;1.57;;;;;;;15.59;100.00;101514.59;5030832;28;20524;-77
2023/08/24 02:32:25;;;;;;;4.70;1.50;;;;;;;16.20;100.00;101613.34;5029738;28;20427;-76
2023/08/24 02:34:51;;;;;;;3.43;1.20;;;;;;;15.60;100.00;101487.34;5035062;28;20431;-77
2023/08/24 02:37:16;;;;;;;3.67;1.40;;;;;;;15.89;100.00;101535.72;5029398;28;20566;-77
2023/08/24 02:39:42;;;;;;;5.73;1.80;;;;;;;16.36;100.00;101607.44;5031586;28;20196;-77
2023/08/24 02:42:07;;;;;;;3.07;1.50;;;;;;;15.84;100.00;101536.34;5029276;28;20184;-77
2023/08/24 02:44:33;;;;;;;4.90;1.90;;;;;;;16.32;100.00;101608.94;5031653;28;20546;-76
2023/08/24 02:46:58;;;;;;;4.17;1.63;;;;;;;15.41;100.00;101485.56;5028953;28;20310;-76
2023/08/24 02:49:24;;;;;;;4.07;1.53;;;;;;;16.15;100.00;101597.78;5029675;28;20274;-77
2023/08/24 02:51:49;;;;;;;3.47;1.80;;;;;;;14.43;100.00;101329.84;5029189;28;20358;-76
2023/08/24 02:54:15;;;;;;;3.10;1.40;;;;;;;15.95;100.00;101567.31;5028852;28;20190;-77
2023/08/24 02:56:40;;;;;;;3.23;1.43;;;;;;;15.60;100.00;101536.03;5031642;28;20688;-77
2023/08/24 02:59:06;;;;;;;2.80;1.60;;;;;;;16.08;100.00;101591.56;5032553;28;20214;-77
2023/08/24 03:01:31;;;;;;;6.10;1.77;;;;;;;16.16;100.00;101602.13;5035353;28;21134;-76
2023/08/24 03:03:57;;;;;;;3.13;1.60;;;;;;;15.33;100.00;101475.00;5033343;28;20315;-76
2023/08/24 03:06:24;;;;;;;3.70;1.57;;;;;;;15.73;100.00;101564.91;5033971;28;20195;-76
2023/08/24 03:08:49;;;;;;;4.53;1.60;;;;;;;15.70;100.00;101532.06;5032539;28;20211;-77
2023/08/24 03:11:15;;;;;;;3.17;1.47;;;;;;;16.24;100.00;101596.47;5032746;28;20466;-77
2023/08/24 03:13:40;;;;;;;4.63;1.60;;;;;;;15.30;100.00;101451.09;5032522;28;20215;-77
2023/08/24 03:16:07;;;;;;;3.27;1.80;;;;;;;16.09;100.00;101552.66;5033165;28;20188;-76
2023/08/24 03:18:33;;;;;;;2.90;1.43;;;;;;;16.23;100.00;101561.50;5031007;28;20708;-76
2023/08/24 03:20:58;;;;;;;3.23;1.57;;;;;;;16.32;100.00;101627.06;5033301;28;20431;-76
2023/08/24 03:23:24;;;;;;;2.83;1.20;;;;;;;15.44;100.00;101485.13;5033520;28;20322;-76
2023/08/24 03:25:50;;;;;;;4.70;1.90;;;;;;;15.53;100.00;101556.00;5033272;28;20511;-76
2023/08/24 03:28:15;;;;;;;3.97;1.70;;;;;;;15.54;100.00;101460.34;5031302;28;20181;-76
2023/08/24 03:30:47;;;;;;;2.80;1.60;;;;;;;15.94;100.00;101506.09;5032829;28;20199;-76
2023/08/24 03:33:13;;;;;;;3.80;1.90;;;;;;;15.87;100.00;101467.47;5033650;28;20180;-76
2023/08/24 03:35:40;;;;;;;5.20;2.00;;;;;;;15.84;100.00;101532.81;5032780;28;20437;-76
2023/08/24 03:38:05;;;;;;;3.67;1.77;;;;;;;16.28;100.00;101586.03;5033511;28;20164;-76
2023/08/24 03:40:31;;;;;;;5.40;2.07;;;;;;;16.37;100.00;101570.34;5031460;28;20805;-76
2023/08/24 03:42:56;;;;;;;3.73;2.03;;;;;;;14.96;100.00;101358.56;5032904;28;20176;-76
2023/08/24 03:45:22;;;;;;;4.83;2.10;;;;;;;15.29;100.00;101396.22;5034886;28;20184;-76
2023/08/24 03:47:48;;;;;;;4.93;1.90;;;;;;;16.29;100.00;101574.16;5030798;28;20184;-76
2023/08/24 03:50:14;;;;;;;4.67;2.27;;;;;;;14.60;100.00;101335.66;5043139;28;20459;-76
2023/08/24 03:52:40;;;;;;;4.13;2.20;;;;;;;14.55;100.00;101318.44;5031441;28;20492;-77
2023/08/24 03:55:07;;;;;;;3.77;2.20;;;;;;;15.83;100.00;101556.34;5033407;28;20858;-76
2023/08/24 03:57:32;;;;;;;4.60;2.80;;;;;;;15.12;100.00;101428.31;5036859;28;20600;-77
2023/08/24 03:59:58;;;;;;;4.60;2.53;;;;;;;14.63;100.00;101332.53;5042556;28;20442;-76
2023/08/24 04:02:24;;;;;;;4.60;2.13;;;;;;;13.44;100.00;101160.19;5034108;28;20602;-76
2023/08/24 04:04:50;;;;;;;6.43;2.77;;;;;;;14.42;100.00;101379.47;5033916;28;20173;-76
2023/08/24 04:07:16;;;;;;;4.27;2.30;;;;;;;15.26;100.00;101466.09;5031766;28;20180;-76
2023/08/24 04:09:41;;;;;;;4.47;2.70;;;;;;;13.81;100.00;101300.75;5031290;28;20462;-76
2023/08/24 04:12:07;;;;;;;4.70;2.50;;;;;;;14.38;100.00;101323.47;5034719;28;20184;-77
2023/08/24 04:14:33;;;;;;;8.07;3.27;;;;;;;14.54;100.00;101440.97;5032450;28;20693;-76
2023/08/24 04:16:58;;;;;;;3.50;2.30;;;;;;;13.91;100.00;101271.47;5032925;28;20645;-76
2023/08/24 04:19:24;;;;;;;4.27;3.07;;;;;;;15.75;100.00;101545.75;5032152;28;20963;-76
2023/08/24 04:21:49;;;;;;;4.00;2.60;;;;;;;13.16;100.00;101128.91;5033804;28;20255;-76
2023/08/24 04:24:15;;;;;;;4.20;2.70;;;;;;;14.67;100.00;101419.34;5031875;28;20482;-76
2023/08/24 04:26:40;;;;;;;5.23;2.50;;;;;;;15.76;100.00;101544.69;5030771;28;20693;-76
2023/08/24 04:29:06;;;;;;;4.97;2.63;;;;;;;13.72;100.00;101244.34;5033088;28;20212;-77
2023/08/24 04:31:31;;;;;;;7.20;2.80;;;;;;;12.99;100.00;101071.13;5032055;28;20204;-76
2023/08/24 04:33:57;;;;;;;5.47;2.60;;;;;;;12.84;100.00;101074.91;5030568;28;20620;-76
2023/08/24 04:36:22;;;;;;;5.20;2.73;;;;;;;14.18;100.00;101312.72;5034503;28;21276;-76
2023/08/24 04:38:48;;;;;;;3.97;2.70;;;;;;;14.83;100.00;101467.47;5031891;28;20700;-76
2023/08/24 04:41:13;;;;;;;5.10;2.80;;;;;;;13.63;100.00;101247.47;5030187;28;20732;-77
2023/08/24 04:43:38;;;;;;;4.10;2.70;;;;;;;15.24;100.00;101512.25;5031738;28;20190;-76
2023/08/24 04:46:04;;;;;;;5.37;2.90;;;;;;;13.99;100.00;101265.84;5030772;28;20180;-76
2023/08/24 04:48:34;;;;;;;4.40;2.60;;;;;;;13.76;100.00;101290.56;5030659;28;20204;-77
2023/08/24 04:51:00;;;;;;;4.50;2.97;;;;;;;15.22;100.00;101510.81;5032185;28;20688;-75
2023/08/24 04:53:26;;;;;;;5.00;3.37;;;;;;;15.95;100.00;101584.34;5032838;28;20438;-76
2023/08/24 04:55:51;;;;;;;5.70;2.80;;;;;;;13.22;100.00;101157.72;5034345;28;20928;-76
2023/08/24 04:58:17;;;;;;;7.43;3.00;;;;;;;13.02;100.00;101098.47;5030650;28;20183;-76
2023/08/24 05:00:43;;;;;;;6.83;2.93;;;;;;;13.47;100.00;101165.16;5031585;28;20176;-76
2023/08/24 05:03:09;;;;;;;6.27;3.30;;;;;;;13.60;100.00;101205.59;5033063;28;20817;-76
2023/08/24 05:05:36;;;;;;;5.53;3.60;;;;;;;15.63;100.00;101507.72;5031116;28;20204;-76
2023/08/24 05:08:02;;;;;;;5.63;3.40;;;;;;;14.33;100.00;101388.03;5030346;28;20257;-76
2023/08/24 05:10:33;;;;;;;6.47;2.97;;;;;;;16.03;100.00;101575.16;5031204;28;20516;-76
2023/08/24 05:12:59;;;;;;;5.63;3.63;;;;;;;13.13;100.00;101113.16;5030979;28;20435;-76
2023/08/24 05:15:24;;;;;;;7.30;3.90;;;;;;;13.63;100.00;101250.16;5030960;28;20438;-76
2023/08/24 05:17:52;;;;;;;6.57;3.40;;;;;;;14.07;100.00;101299.88;5031121;28;20835;-76
2023/08/24 05:20:18;;;;;;;5.57;3.93;;;;;;;15.14;100.00;101436.22;5031474;28;20679;-75
2023/08/24 05:22:43;;;;;;;6.23;3.73;;;;;;;16.02;100.00;101587.84;5029538;28;20439;-76
2023/08/24 05:25:09;;;;;;;7.10;3.73;;;;;;;14.21;100.00;101261.03;5032053;28;20474;-76
2023/08/24 05:27:35;;;;;;;4.80;3.10;;;;;;;16.23;100.00;101585.88;5028591;28;20177;-76
2023/08/24 05:30:00;;;;;;;6.70;3.57;;;;;;;15.19;100.00;101432.84;5031096;28;20192;-76
2023/08/24 05:32:26;;;;;;;5.70;2.60;;;;;;;13.15;100.00;101188.38;5029642;28;20180;-76
2023/08/24 05:34:51;;;;;;;6.20;3.00;;;;;;;13.10;100.00;101135.13;5030314;28;20180;-76
2023/08/24 05:37:16;;;;;;;6.67;3.57;;;;;;;14.51;100.00;101361.19;5030146;28;20180;-77
2023/08/24 05:39:42;;;;;;;5.90;3.13;;;;;;;13.51;100.00;101152.91;5030624;28;20690;-76
2023/08/24 05:42:09;;;;;;;5.33;2.70;;;;;;;13.60;100.00;101223.59;5033386;28;20717;-76
2023/08/24 05:44:34;;;;;;;5.57;3.30;;;;;;;14.58;100.00;101293.72;5030195;28;20175;-76
2023/08/24 05:47:00;;;;;;;7.35;3.10;;;;;;;15.79;100.00;101528.03;5030177;28;20423;-76
2023/08/24 05:49:25;;;;;;;4.60;3.00;;;;;;;14.31;100.00;101336.94;5034321;28;20237;-76
2023/08/24 05:51:52;;;;;;;8.53;3.70;;;;;;;16.14;100.00;101527.63;5032832;28;20204;-77
2023/08/24 05:54:18;;;;;;;4.60;2.87;;;;;;;13.15;100.00;101027.59;5030249;28;20334;-76
2023/08/24 05:56:44;;;;;;;6.10;3.30;;;;;;;14.12;100.00;101213.75;5029877;28;20990;-76
2023/08/24 05:59:10;;;;;;;5.80;3.10;;;;;;;13.89;100.00;101206.16;5031487;28;20454;-76
2023/08/24 06:01:38;;;;;;;6.10;3.30;;;;;;;14.86;100.00;101293.38;5033557;28;20484;-76
2023/08/24 06:04:07;;;;;;;8.30;3.13;;;;;;;15.72;100.00;101417.19;5029649;28;20263;-76
2023/08/24 06:06:32;;;;;;;4.70;2.50;;;;;;;14.23;100.00;101178.84;5032420;28;20427;-77
2023/08/24 06:08:58;;;;;;;5.20;2.73;;;;;;;15.27;100.00;101289.38;5028970;28;20447;-76
2023/08/24 06:11:23;;;;;;;5.17;2.20;;;;;;;13.89;100.00;101060.53;5042535;28;20216;-76
2023/08/24 06:13:52;;;;;;;4.30;2.53;;;;;;;15.62;100.00;101341.09;5031484;28;20190;-76
2023/08/24 06:16:17;;;;;;;5.00;2.50;;;;;;;15.49;100.00;101379.88;5031045;28;20256;-76
2023/08/24 06:18:43;;;;;;;5.20;2.47;;;;;;;15.55;100.00;101410.63;5029686;28;21147;-76
2023/08/24 06:21:08;;;;;;;4.50;2.30;;;;;;;14.91;100.00;101277.34;5028494;28;20225;-76
2023/08/24 06:23:33;;;;;;;5.57;2.20;;;;;;;15.33;100.00;101227.19;5028640;28;20191;-77
2023/08/24 06:26:01;;;;;;;4.80;2.87;;;;;;;16.66;100.00;101560.75;5028144;28;20176;-76
2023/08/24 06:28:26;;;;;;;6.50;2.57;;;;;;;15.65;100.00;101348.78;5028133;28;20619;-76
2023/08/24 06:30:52;;;;;;;7.70;2.67;;;;;;;16.97;100.00;101540.91;5026856;28;20506;-76
2023/08/24 06:33:18;;;;;;;5.73;2.70;;;;;;;17.24;100.00;101657.19;5033346;28;20215;-77
2023/08/24 06:35:44;;;;;;;5.53;2.50;;;;;;;15.36;100.00;101298.88;5033758;28;20184;-76
2023/08/24 06:38:09;;;;;;;6.33;2.67;;;;;;;15.77;100.00;101362.47;5032358;28;20875;-76
2023/08/24 06:40:35;;;;;;;6.17;2.80;;;;;;;15.37;100.00;101250.00;5036966;28;20188;-77
2023/08/24 06:43:00;;;;;;;4.33;2.80;;;;;;;16.97;100.00;101480.47;5044355;28;20835;-77
2023/08/24 06:45:26;;;;;;;5.20;2.27;;;;;;;16.89;100.00;101459.91;5035130;28;20183;-77
2023/08/24 06:47:52;;;;;;;5.30;2.47;;;;;;;15.85;100.00;101320.75;5032132;28;20192;-76
2023/08/24 06:50:19;;;;;;;3.27;2.03;;;;;;;14.83;100.00;101199.28;5034558;28;20222;-76
2023/08/24 06:52:44;;;;;;;6.00;2.30;;;;;;;15.07;100.00;101203.06;5035530;28;20434;-76
2023/08/24 06:55:10;;;;;;;3.80;2.10;;;;;;;16.02;100.00;101328.09;5031777;28;20443;-76
2023/08/24 06:57:36;;;;;;;3.80;2.10;;;;;;;16.70;100.00;101408.41;5032490;28;20192;-76
2023/08/24 07:00:06;;;;;;;5.07;1.70;;;;;;;18.00;100.00;101545.50;5030097;28;20238;-76
2023/08/24 07:02:31;;;;;;;4.00;2.20;;;;;;;16.72;100.00;101344.00;5033784;28;20210;-76
2023/08/24 07:04:57;;;;;;;3.57;1.70;;;;;;;16.14;100.00;101243.47;5034505;28;20435;-76
2023/08/24 07:07:22;;;;;;;5.17;2.13;;;;;;;16.07;100.00;101211.06;5030958;28;20188;-76
2023/08/24 07:09:48;;;;;;;5.10;1.80;;;;;;;16.21;100.00;101272.13;5034843;28;20207;-76
2023/08/24 07:12:13;;;;;;;5.77;2.00;;;;;;;17.02;100.00;101389.28;5030440;28;20564;-77
2023/08/24 07:14:39;;;;;;;5.13;2.10;;;;;;;15.10;100.00;101041.38;5033344;28;20184;-76
2023/08/24 07:17:06;;;;;;;5.30;1.90;;;;;;;18.05;100.00;101529.38;5030496;28;20192;-76
2023/08/24 07:19:32;;;;;;;3.27;1.73;;;;;;;16.94;100.00;101401.25;5031720;28;20208;-77
2023/08/24 07:21:57;;;;;;;3.33;1.30;;;;;;;16.38;100.00;101214.66;5031692;28;20969;-77
2023/08/24 07:24:26;;;;;;;4.47;1.63;;;;;;;16.11;100.00;101162.72;5043227;28;20625;-77
2023/08/24 07:26:52;;;;;;;4.10;1.60;;;;;;;15.39;100.00;101063.31;5032083;28;20203;-77
2023/08/24 07:29:18;;;;;;;3.67;1.33;;;;;;;18.00;100.00;101472.22;5030205;28;20462;-76
2023/08/24 07:31:44;;;;;;;3.40;1.25;;;;;;;16.12;100.00;101154.41;5030412;28;20976;-77
2023/08/24 07:34:09;;;;;;;4.00;1.53;;;;;;;18.60;100.00;101506.53;5032315;28;20427;-77
2023/08/24 07:36:35;;;;;;;2.90;1.40;;;;;;;16.14;100.00;101182.06;5033210;28;20188;-77
2023/08/24 07:39:00;;;;;;;3.00;1.37;;;;;;;16.00;100.00;101169.75;5033816;28;20203;-77
2023/08/24 07:41:26;;;;;;;4.75;1.95;;;;;;;16.09;100.00;101159.44;5036165;28;20788;-76
2023/08/24 07:43:51;;;;;;;3.33;1.40;;;;;;;17.75;100.00;101384.72;5032500;28;20190;-76
2023/08/24 07:46:16;;;;;;;3.60;1.50;;;;;;;17.70;100.00;101414.41;5033574;28;20191;-76
2023/08/24 07:48:42;;;;;;;4.90;1.93;;;;;;;17.51;100.00;101332.31;5030574;28;20243;-76
2023/08/24 07:51:07;;;;;;;4.00;1.43;;;;;;;17.34;100.00;101284.16;5033156;28;20583;-77
2023/08/24 07:53:33;;;;;;;7.00;1.95;;;;;;;19.15;100.00;101510.75;5033502;28;20188;-77
2023/08/24 07:56:01;;;;;;;6.70;1.80;;;;;;;17.89;100.00;101290.38;5031080;28;20223;-77
2023/08/24 07:58:27;;;;;;;10.70;2.10;;;;;;;18.84;100.00;101446.78;5031395;28;20203;-76
2023/08/24 08:00:52;;;;;;;3.93;1.70;;;;;;;18.30;100.00;101415.09;5035296;28;20442;-77
2023/08/24 08:03:19;;;;;;;4.93;2.27;;;;;;;18.79;100.00;101462.97;5030665;28;20184;-77
2023/08/24 08:05:45;;;;;;;4.57;1.80;;;;;;;19.37;100.00;101503.59;5030326;28;20449;-77
2023/08/24 08:08:11;;;;;;;3.93;2.27;;;;;;;18.94;100.00;101444.25;5029558;28;20814;-76
2023/08/24 08:10:36;;;;;;;4.63;2.00;;;;;;;18.81;100.00;101420.06;5029571;28;20522;-77
2023/08/24 08:13:01;;;;;;;5.33;1.70;;;;;;;18.64;100.00;101401.75;5033631;28;20194;-76
2023/08/24 08:15:27;;;;;;;2.33;1.20;;;;;;;19.07;100.00;101465.75;5031402;28;20183;-77
2023/08/24 08:17:52;;;;;;;2.70;1.20;;;;;;;19.07;100.00;101454.88;5031937;28;20196;-77
2023/08/24 08:20:18;;;;;;;4.43;1.20;;;;;;;19.19;100.00;101449.41;5032629;28;20273;-76
2023/08/24 08:22:44;;;;;;;4.70;2.00;;;;;;;19.51;100.00;101541.44;5030645;28;20567;-77
2023/08/24 08:25:11;;;;;;;6.17;2.27;;;;;;;18.78;100.00;101436.84;5031714;28;20184;-77
2023/08/24 08:27:52;;;;;;;6.70;1.90;;;;;;;19.46;100.00;101511.41;5032073;28;20465;-77
2023/08/24 08:30:20;;;;;;;3.77;2.00;;;;;;;19.81;100.00;101552.09;5037402;28;20478;-77
2023/08/24 08:32:45;;;;;;;3.60;1.70;;;;;;;19.81;100.00;101561.09;5032175;28;20462;-76
2023/08/24 08:35:11;;;;;;;4.87;2.10;;;;;;;19.82;100.00;101567.41;5033983;28;20462;-76
2023/08/24 08:37:36;;;;;;;5.07;2.40;;;;;;;19.88;100.00;101555.53;5032284;28;20180;-77
2023/08/24 08:40:06;;;;;;;4.70;1.80;;;;;;;19.93;100.00;101530.28;5035993;28;20211;-76
2023/08/24 08:42:34;;;;;;;5.90;2.60;;;;;;;19.87;100.00;101553.84;5032600;28;20202;-77
2023/08/24 08:45:03;;;;;;;5.00;1.93;;;;;;;19.65;100.00;101515.63;5033233;28;20493;-77
2023/08/24 08:47:28;;;;;;;5.50;1.50;;;;;;;19.56;100.00;101454.47;5030275;28;20462;-77
2023/08/24 08:49:55;;;;;;;4.13;1.80;;;;;;;19.61;100.00;101476.31;5033024;28;21208;-76
2023/08/24 08:52:20;;;;;;;5.20;2.20;;;;;;;19.40;100.00;101418.78;5027896;28;20188;-77
2023/08/24 08:54:46;;;;;;;3.30;1.75;;;;;;;19.38;100.00;101393.75;5029163;28;20469;-77
2023/08/24 08:57:12;;;;;;;4.60;2.80;;;;;;;18.71;100.00;101325.53;5029636;28;20740;-77
2023/08/24 08:59:39;;;;;;;5.27;1.93;;;;;;;19.92;100.00;101472.28;5030963;28;20198;-77
2023/08/24 09:02:05;;;;;;;2.80;1.50;;;;;;;20.37;100.00;101489.66;5030387;28;20474;-76
2023/08/24 09:04:32;;;;;;;4.73;2.27;;;;;;;20.54;100.00;101509.56;5028361;28;20439;-76
2023/08/24 09:07:00;;;;;;;7.90;2.47;;;;;;;20.46;100.00;101535.28;5032797;28;20808;-76
2023/08/24 09:09:26;;;;;;;3.37;1.70;;;;;;;20.41;100.00;101513.41;5029134;28;20451;-77
2023/08/24 09:11:53;;;;;;;6.70;2.85;;;;;;;19.72;100.00;101407.41;5031423;28;20471;-77
2023/08/24 09:14:19;;;;;;;5.30;2.20;;;;;;;19.75;100.00;101415.09;5029242;28;20512;-77
2023/08/24 09:16:44;;;;;;;4.87;2.03;;;;;;;19.67;100.00;101391.00;5032448;28;20938;-77
2023/08/24 09:19:11;;;;;;;3.33;1.10;;;;;;;20.53;100.00;101495.09;5033155;28;20222;-78
2023/08/24 09:21:39;;;;;;;4.10;1.97;;;;;;;20.87;100.00;101513.31;5028016;28;20736;-77
2023/08/24 09:24:05;;;;;;;5.20;2.30;;;;;;;21.00;100.00;101491.13;5030122;28;20442;-78
2023/08/24 09:26:33;;;;;;;4.00;1.43;;;;;;;21.10;100.00;101502.19;5030824;28;20460;-77
2023/08/24 09:29:00;;;;;;;5.50;2.00;;;;;;;21.00;100.00;101480.22;5034568;28;20485;-77
2023/08/24 09:31:37;;;;;;;3.93;2.03;;;;;;;21.01;100.00;101519.25;5033851;28;20910;-77
2023/08/24 09:34:03;;;;;;;4.47;2.40;;;;;;;21.24;100.00;101529.09;5030799;28;20200;-76
2023/08/24 09:36:31;;;;;;;6.20;2.40;;;;;;;20.75;100.00;101459.72;5037908;28;20443;-76
2023/08/24 09:38:59;;;;;;;4.50;2.20;;;;;;;21.34;100.00;101527.28;5029559;28;20459;-77
2023/08/24 09:41:37;;;;;;;5.40;2.50;;;;;;;21.09;100.00;101462.34;5030946;28;20441;-77
2023/08/24 09:44:05;;;;;;;4.90;2.23;;;;;;;21.54;100.00;101499.44;5029638;28;20880;-77
2023/08/24 09:46:30;;;;;;;3.63;1.50;;;;;;;21.61;100.00;101485.59;5030067;28;20814;-77
2023/08/24 09:48:58;;;;;;;4.27;1.90;;;;;;;21.63;100.00;101484.25;5030384;28;20469;-77
2023/08/24 09:51:29;;;;;;;9.20;2.40;;;;;;;21.69;100.00;101498.78;5029159;28;20207;-77
2023/08/24 09:53:59;;;;;;;3.97;2.17;;;;;;;21.12;100.00;101355.47;5031077;28;19966;-76
2023/08/24 09:56:28;;;;;;;4.70;2.27;;;;;;;20.85;100.00;101319.97;5030220;28;21344;-77
2023/08/24 09:58:57;;;;;;;5.03;2.37;;;;;;;21.28;100.00;101418.34;5027206;28;20983;-76
2023/08/24 10:01:24;;;;;;;6.30;3.20;;;;;;;21.26;100.00;101409.59;5029607;28;20470;-77
2023/08/24 10:03:56;;;;;;;5.00;2.30;;;;;;;21.77;100.00;101449.19;5029965;28;20478;-77
2023/08/24 10:06:24;;;;;;;4.97;2.20;;;;;;;21.64;100.00;101446.88;5030455;28;20423;-77
2023/08/24 10:08:54;;;;;;;4.00;1.90;;;;;;;21.54;100.00;101428.50;5031748;28;20451;-76
2023/08/24 10:11:25;;;;;;;4.40;2.50;;;;;;;20.30;100.00;101233.75;5027292;28;20474;-77
2023/08/24 10:14:21;;;;;;;6.03;3.23;;;;;;;21.60;100.00;101437.56;5028021;28;20434;-77
2023/08/24 10:16:48;;;;;;;5.50;2.40;;;;;;;21.42;100.00;101409.53;5028724;28;20426;-76
2023/08/24 10:19:13;;;;;;;;;;;;;;;21.64;100.00;101412.22;5031916;28;20478;-77
2023/08/24 10:21:40;;;;;;;5.73;2.70;;;;;;;20.95;100.00;101338.38;5031048;28;20052;-76
2023/08/24 10:24:09;;;;;;;3.97;2.10;;;;;;;21.43;100.00;101393.97;5040679;28;20610;-77
2023/08/24 10:26:36;;;;;;;4.43;2.07;;;;;;;21.47;100.00;101399.78;5029240;28;20853;-77
2023/08/24 10:29:03;;;;;;;4.20;2.13;;;;;;;21.14;100.00;101333.38;5028790;28;20574;-77
2023/08/24 10:34:31;;;;;;;9.10;4.03;;;;;;;21.48;100.00;101363.19;5031489;28;20529;-77
2023/08/24 10:36:57;;;;;;;;;;;;;;;21.45;100.00;101342.72;5029126;28;20469;-77
2023/08/24 10:39:31;;;;;;;;;;;;;;;21.49;100.00;101321.16;5029959;28;19916;-77
2023/08/24 10:42:01;;;;;;;6.40;2.53;;;;;;;21.03;100.00;101253.38;5028603;28;19917;-77
2023/08/24 10:44:36;;;;;;;6.23;2.40;;;;;;;21.42;100.00;101311.31;5027351;28;20430;-77
2023/08/24 10:47:15;;;;;;;6.50;2.90;;;;;;;21.51;100.00;101311.66;5029012;28;20465;-77
2023/08/24 10:49:58;;;;;;;6.90;3.03;;;;;;;21.44;100.00;101281.84;5028965;28;20478;-77
2023/08/24 10:52:24;;;;;;;;;;;;;;;21.50;100.00;101279.16;5028065;28;21474;-77
2023/08/24 10:54:53;;;;;;;4.40;2.60;;;;;;;21.38;100.00;101250.16;5028828;28;19916;-77
2023/08/24 10:57:20;;;;;;;6.27;3.20;;;;;;;21.48;100.00;101265.78;5031076;28;20439;-77
2023/08/24 10:59:59;;;;;;;5.33;2.43;;;;;;;20.80;100.00;101142.75;5029945;28;20454;-77
2023/08/24 11:02:25;;;;;;;7.90;3.50;;;;;;;21.58;100.00;101254.09;5029077;28;20938;-77
2023/08/24 11:05:06;;;;;;;5.43;2.97;;;;;;;21.53;100.00;101248.63;5026879;28;20437;-77
2023/08/24 11:07:32;;;;;;;6.87;3.60;;;;;;;21.32;100.00;101223.88;5028151;28;20239;-77
2023/08/24 11:09:57;;;;;;;5.00;2.03;;;;;;;20.71;100.00;101104.22;5028820;28;20890;-77
2023/08/24 11:12:23;;;;;;;7.63;2.90;;;;;;;21.22;100.00;101186.41;5028409;28;20230;-77
2023/08/24 11:14:58;;;;;;;4.07;2.43;;;;;;;21.38;100.00;101211.97;5028585;28;20370;-77
2023/08/24 11:17:29;;;;;;;4.70;2.50;;;;;;;21.46;100.00;101228.91;5031628;28;20266;-77
2023/08/24 11:19:55;;;;;;;4.83;2.20;;;;;;;20.73;100.00;101087.59;5033245;28;20472;-77